createdAt,value
2018-03-27T00:00:18.311Z,84.69
2018-03-27T00:02:45.919Z,84.00
2018-03-27T00:05:16.326Z,84.51
2018-03-27T00:07:44.832Z,85.23
2018-03-27T00:10:12.474Z,85.57
2018-03-27T00:12:40.032Z,85.68
2018-03-27T00:15:07.579Z,83.12
2018-03-27T00:17:35.132Z,84.79
2018-03-27T00:20:02.719Z,84.88
2018-03-27T00:22:30.280Z,85.26
2018-03-27T00:24:57.828Z,84.88
2018-03-27T00:27:37.122Z,84.84
2018-03-27T00:30:16.663Z,84.75
2018-03-27T00:32:56.254Z,85.17
2018-03-27T00:35:35.751Z,84.87
2018-03-27T00:38:15.267Z,85.31
2018-03-27T00:40:43.187Z,84.58
2018-03-27T00:43:14.282Z,85.26
2018-03-27T00:45:41.911Z,84.23
2018-03-27T00:48:09.459Z,84.80
2018-03-27T00:50:37.002Z,85.23
2018-03-27T00:53:04.591Z,85.73
2018-03-27T00:55:32.194Z,85.49
2018-03-27T00:57:59.721Z,84.91
2018-03-27T01:00:27.270Z,85.05
2018-03-27T01:02:54.814Z,83.63
2018-03-27T01:05:22.407Z,83.16
2018-03-27T01:07:49.962Z,83.48
2018-03-27T01:10:17.556Z,84.15
2018-03-27T01:12:45.178Z,84.21
2018-03-27T01:15:12.728Z,84.82
2018-03-27T01:17:40.279Z,83.64
2018-03-27T01:20:07.865Z,84.12
2018-03-27T01:22:35.460Z,83.31
2018-03-27T01:25:03.008Z,85.10
2018-03-27T01:27:30.607Z,84.33
2018-03-27T01:29:58.196Z,84.52
2018-03-27T01:32:25.749Z,83.78
2018-03-27T01:34:53.347Z,83.27
2018-03-27T01:37:20.898Z,83.89
2018-03-27T01:39:48.490Z,83.80
2018-03-27T01:42:16.035Z,83.74
2018-03-27T01:44:43.587Z,83.16
2018-03-27T01:47:11.144Z,83.79
2018-03-27T01:49:38.723Z,83.41
2018-03-27T01:52:06.332Z,83.65
2018-03-27T01:54:33.958Z,84.21
2018-03-27T01:57:01.510Z,84.72
2018-03-27T01:59:29.109Z,85.08
2018-03-27T02:01:56.700Z,84.54
2018-03-27T02:04:24.247Z,84.07
2018-03-27T02:06:51.803Z,84.12
2018-03-27T02:09:19.354Z,84.25
2018-03-27T02:11:52.524Z,83.63
2018-03-27T02:14:25.812Z,84.01
2018-03-27T02:16:58.891Z,82.92
2018-03-27T02:19:32.127Z,83.57
2018-03-27T02:21:59.151Z,82.30
2018-03-27T02:24:28.607Z,82.09
2018-03-27T02:26:56.160Z,82.54
2018-03-27T02:29:23.755Z,83.04
2018-03-27T02:31:51.318Z,83.29
2018-03-27T02:34:18.903Z,83.82
2018-03-27T02:36:46.463Z,84.67
2018-03-27T02:39:14.060Z,84.86
2018-03-27T02:41:41.618Z,84.66
2018-03-27T02:44:09.210Z,84.15
2018-03-27T02:46:36.765Z,84.37
2018-03-27T02:49:04.331Z,84.32
2018-03-27T02:51:31.942Z,83.82
2018-03-27T02:53:59.504Z,84.19
2018-03-27T02:56:27.098Z,84.17
2018-03-27T02:58:54.655Z,83.90
2018-03-27T03:01:22.246Z,83.38
2018-03-27T03:03:49.803Z,83.63
2018-03-27T03:06:17.391Z,83.61
2018-03-27T03:08:44.948Z,83.66
2018-03-27T03:11:12.540Z,83.65
2018-03-27T03:13:40.139Z,83.69
2018-03-27T03:16:07.705Z,84.45
2018-03-27T03:18:35.295Z,82.93
2018-03-27T03:21:02.847Z,82.87
2018-03-27T03:23:30.396Z,83.34
2018-03-27T03:25:57.952Z,83.44
2018-03-27T03:28:25.503Z,83.78
2018-03-27T03:30:53.069Z,84.69
2018-03-27T03:33:20.623Z,83.84
2018-03-27T03:35:48.179Z,83.89
2018-03-27T03:38:15.775Z,84.58
2018-03-27T03:40:43.335Z,83.79
2018-03-27T03:43:10.894Z,84.10
2018-03-27T03:45:38.438Z,83.67
2018-03-27T03:48:05.987Z,84.22
2018-03-27T03:50:33.543Z,83.85
2018-03-27T03:53:01.156Z,83.99
2018-03-27T03:55:28.679Z,84.32
2018-03-27T03:57:56.227Z,84.41
2018-03-27T04:00:23.835Z,84.29
2018-03-27T04:02:51.362Z,83.79
2018-03-27T04:05:18.916Z,83.71
2018-03-27T04:07:46.464Z,82.37
2018-03-27T04:10:14.063Z,82.60
2018-03-27T04:12:41.656Z,82.64
2018-03-27T04:15:09.215Z,83.80
2018-03-27T04:17:36.768Z,83.49
2018-03-27T04:20:04.418Z,84.30
2018-03-27T04:22:32.124Z,83.69
2018-03-27T04:24:59.746Z,84.58
2018-03-27T04:27:27.331Z,84.09
2018-03-27T04:29:54.883Z,83.33
2018-03-27T04:32:22.490Z,84.48
2018-03-27T04:34:50.056Z,84.37
2018-03-27T04:37:17.610Z,83.91
2018-03-27T04:39:45.159Z,84.44
2018-03-27T04:42:12.711Z,85.08
2018-03-27T04:44:40.302Z,84.75
2018-03-27T04:47:07.854Z,84.50
2018-03-27T04:49:35.449Z,85.56
2018-03-27T04:52:03.039Z,84.85
2018-03-27T04:54:30.671Z,85.51
2018-03-27T04:56:58.223Z,84.43
2018-03-27T04:59:25.794Z,84.95
2018-03-27T05:01:53.356Z,85.25
2018-03-27T05:04:20.914Z,85.09
2018-03-27T05:06:48.476Z,85.25
2018-03-27T05:09:16.045Z,85.63
2018-03-27T05:11:43.643Z,86.50
2018-03-27T05:14:11.195Z,86.01
2018-03-27T05:16:38.794Z,85.32
2018-03-27T05:19:06.341Z,85.76
2018-03-27T05:21:33.893Z,85.24
2018-03-27T05:24:01.503Z,85.04
2018-03-27T05:26:29.087Z,84.93
2018-03-27T05:28:56.640Z,85.00
2018-03-27T05:31:24.231Z,83.34
2018-03-27T05:33:51.823Z,84.75
2018-03-27T05:36:19.379Z,84.76
2018-03-27T05:38:46.981Z,84.10
2018-03-27T05:41:15.376Z,84.97
2018-03-27T05:43:42.943Z,85.83
2018-03-27T05:46:10.546Z,85.74
2018-03-27T05:48:38.095Z,85.23
2018-03-27T05:51:05.695Z,83.95
2018-03-27T05:53:33.246Z,83.97
2018-03-27T05:56:00.846Z,83.46
2018-03-27T05:58:28.400Z,82.89
2018-03-27T06:00:55.958Z,83.97
2018-03-27T06:03:23.516Z,82.66
2018-03-27T06:05:51.073Z,82.26
2018-03-27T06:08:18.672Z,84.31
2018-03-27T06:10:46.227Z,84.01
2018-03-27T06:13:13.774Z,81.84
2018-03-27T06:15:41.326Z,81.39
2018-03-27T06:18:08.912Z,80.48
2018-03-27T06:20:36.467Z,81.74
2018-03-27T06:23:04.027Z,80.08
2018-03-27T06:25:31.629Z,79.54
2018-03-27T06:27:59.221Z,80.92
2018-03-27T06:30:26.834Z,80.29
2018-03-27T06:32:54.399Z,79.11
2018-03-27T06:35:21.950Z,80.49
2018-03-27T06:37:49.537Z,81.73
2018-03-27T06:40:17.155Z,80.15
2018-03-27T06:42:44.744Z,80.43
2018-03-27T06:45:12.308Z,80.62
2018-03-27T06:47:39.907Z,80.01
2018-03-27T06:50:07.480Z,79.27
2018-03-27T06:52:35.034Z,80.51
2018-03-27T06:55:02.593Z,79.83
2018-03-27T06:57:30.151Z,80.12
2018-03-27T06:59:57.707Z,78.57
2018-03-27T07:02:25.260Z,77.77
2018-03-27T07:04:52.820Z,76.71
2018-03-27T07:07:20.423Z,75.64
2018-03-27T07:09:47.980Z,76.39
2018-03-27T07:15:04.863Z,77.80
2018-03-27T07:17:48.473Z,76.40
2018-03-27T07:20:16.139Z,77.25
2018-03-27T07:22:43.702Z,76.47
2018-03-27T07:25:11.286Z,77.03
2018-03-27T07:27:40.918Z,78.20
2018-03-27T07:30:08.478Z,78.42
2018-03-27T07:32:36.033Z,76.67
2018-03-27T07:35:03.599Z,77.39
2018-03-27T07:37:31.203Z,76.95
2018-03-27T07:39:58.768Z,76.63
2018-03-27T07:42:26.330Z,76.32
2018-03-27T07:44:53.890Z,76.29
2018-03-27T07:47:21.441Z,75.96
2018-03-27T07:49:49.004Z,77.36
2018-03-27T07:52:16.570Z,75.92
2018-03-27T07:54:44.122Z,75.77
2018-03-27T07:57:11.687Z,76.38
2018-03-27T07:59:39.344Z,75.32
2018-03-27T08:02:06.935Z,76.27
2018-03-27T08:04:34.495Z,75.33
2018-03-27T08:07:02.053Z,75.41
2018-03-27T08:09:29.658Z,73.83
2018-03-27T08:11:57.225Z,74.53
2018-03-27T08:14:24.787Z,72.72
2018-03-27T08:16:52.345Z,69.39
2018-03-27T08:19:19.938Z,71.41
2018-03-27T08:21:47.559Z,71.24
2018-03-27T08:24:15.177Z,70.06
2018-03-27T08:26:42.738Z,68.43
2018-03-27T08:29:10.340Z,68.63
2018-03-27T08:31:37.941Z,65.10
2018-03-27T08:34:05.499Z,66.45
2018-03-27T08:36:33.159Z,64.52
2018-03-27T08:39:00.763Z,63.16
2018-03-27T08:41:28.321Z,63.74
2018-03-27T08:43:56.880Z,62.28
2018-03-27T08:46:24.437Z,64.62
2018-03-27T08:48:52.953Z,65.21
2018-03-27T08:51:20.513Z,63.81
2018-03-27T08:53:48.111Z,65.43
2018-03-27T08:56:15.796Z,64.31
2018-03-27T08:58:43.434Z,64.58
2018-03-27T09:01:10.998Z,65.06
2018-03-27T09:03:38.678Z,67.51
2018-03-27T09:06:06.272Z,65.94
2018-03-27T09:08:33.856Z,65.37
2018-03-27T09:11:01.546Z,66.56
2018-03-27T09:13:29.197Z,66.34
2018-03-27T09:15:56.754Z,65.76
2018-03-27T09:18:24.361Z,67.40
2018-03-27T09:20:55.400Z,67.12
2018-03-27T09:23:23.036Z,65.88
2018-03-27T09:25:50.614Z,65.54
2018-03-27T09:28:18.212Z,65.78
2018-03-27T09:30:45.767Z,65.30
2018-03-27T09:33:13.406Z,63.34
2018-03-27T09:35:40.959Z,64.20
2018-03-27T09:38:08.510Z,64.24
2018-03-27T09:40:36.068Z,63.96
2018-03-27T09:43:04.543Z,65.65
2018-03-27T09:45:32.152Z,63.31
2018-03-27T09:47:59.682Z,63.38
2018-03-27T09:50:27.278Z,62.32
2018-03-27T09:52:54.838Z,60.76
2018-03-27T09:55:22.478Z,63.25
2018-03-27T09:57:50.101Z,62.90
2018-03-27T10:00:17.699Z,61.31
2018-03-27T10:02:45.287Z,62.86
2018-03-27T10:05:12.915Z,63.64
2018-03-27T10:07:40.513Z,62.90
2018-03-27T10:10:08.109Z,62.90
2018-03-27T10:12:35.711Z,65.24
2018-03-27T10:15:03.265Z,63.50
2018-03-27T10:17:30.816Z,62.42
2018-03-27T10:19:58.494Z,63.94
2018-03-27T10:22:26.116Z,61.60
2018-03-27T10:24:53.677Z,64.23
2018-03-27T10:27:21.291Z,60.93
2018-03-27T10:29:48.856Z,63.06
2018-03-27T10:32:16.415Z,62.63
2018-03-27T10:34:43.992Z,62.17
2018-03-27T10:37:11.592Z,63.44
2018-03-27T10:39:39.138Z,60.57
2018-03-27T10:42:06.697Z,61.77
2018-03-27T10:44:34.258Z,63.71
2018-03-27T10:47:01.971Z,62.28
2018-03-27T10:49:29.522Z,61.73
2018-03-27T10:51:57.083Z,60.98
2018-03-27T10:54:24.630Z,63.04
2018-03-27T10:56:52.206Z,63.08
2018-03-27T10:59:19.804Z,63.45
2018-03-27T11:01:47.358Z,61.43
2018-03-27T11:04:14.910Z,61.83
2018-03-27T11:06:42.467Z,61.25
2018-03-27T11:09:10.018Z,61.08
2018-03-27T11:11:37.573Z,59.95
2018-03-27T11:14:05.132Z,60.87
2018-03-27T11:16:34.175Z,61.08
2018-03-27T11:19:01.735Z,59.44
2018-03-27T11:21:29.331Z,58.83
2018-03-27T11:23:56.884Z,57.04
2018-03-27T11:26:24.439Z,56.13
2018-03-27T11:28:52.132Z,57.05
2018-03-27T11:31:19.691Z,59.08
2018-03-27T11:33:47.234Z,58.76
2018-03-27T11:36:14.822Z,57.35
2018-03-27T11:38:42.416Z,56.53
2018-03-27T11:41:09.970Z,57.08
2018-03-27T11:43:37.583Z,57.33
2018-03-27T11:46:05.135Z,56.00
2018-03-27T11:48:32.739Z,54.84
2018-03-27T11:51:00.374Z,54.27
2018-03-27T11:53:27.938Z,54.30
2018-03-27T11:55:55.483Z,56.22
2018-03-27T11:58:23.058Z,55.33
2018-03-27T12:00:50.645Z,53.26
2018-03-27T12:03:18.208Z,55.78
2018-03-27T12:05:45.845Z,55.63
2018-03-27T12:08:13.393Z,54.84
2018-03-27T12:10:41.446Z,54.65
2018-03-27T12:15:59.200Z,56.68
2018-03-27T12:18:26.780Z,56.27
2018-03-27T12:20:54.369Z,55.17
2018-03-27T12:23:21.956Z,57.44
2018-03-27T12:25:49.531Z,53.58
2018-03-27T12:28:17.115Z,54.47
2018-03-27T12:30:44.700Z,53.77
2018-03-27T12:33:12.315Z,53.19
2018-03-27T12:35:39.898Z,50.50
2018-03-27T12:38:07.479Z,50.93
2018-03-27T12:40:35.062Z,52.10
2018-03-27T12:43:02.648Z,50.77
2018-03-27T12:45:30.229Z,50.55
2018-03-27T12:47:57.812Z,49.94
2018-03-27T12:50:25.411Z,49.32
2018-03-27T12:52:52.996Z,51.40
2018-03-27T12:55:20.918Z,51.95
2018-03-27T12:57:48.540Z,49.49
2018-03-27T13:00:16.129Z,51.42
2018-03-27T13:02:43.720Z,48.96
2018-03-27T13:05:11.443Z,50.97
2018-03-27T13:07:39.070Z,52.07
2018-03-27T13:10:06.724Z,50.14
2018-03-27T13:12:34.341Z,48.77
2018-03-27T13:15:01.993Z,48.87
2018-03-27T13:17:29.596Z,49.17
2018-03-27T13:19:57.304Z,52.19
2018-03-27T13:22:24.892Z,51.48
2018-03-27T13:24:52.487Z,51.79
2018-03-27T13:27:20.194Z,53.07
2018-03-27T13:29:47.785Z,51.88
2018-03-27T13:32:15.411Z,51.46
2018-03-27T13:34:43.001Z,50.84
2018-03-27T13:37:10.636Z,50.13
2018-03-27T13:39:38.233Z,53.60
2018-03-27T13:42:05.819Z,54.45
2018-03-27T13:44:33.450Z,54.39
2018-03-27T13:47:01.046Z,53.47
2018-03-27T13:49:28.634Z,55.17
2018-03-27T13:51:56.256Z,54.01
2018-03-27T13:54:23.834Z,54.80
2018-03-27T13:56:51.506Z,55.21
2018-03-27T13:59:19.113Z,52.03
2018-03-27T14:01:46.700Z,53.10
2018-03-27T14:04:14.316Z,52.03
2018-03-27T14:06:41.900Z,51.76
2018-03-27T14:09:09.484Z,50.15
2018-03-27T14:11:37.075Z,52.23
2018-03-27T14:14:04.705Z,52.05
2018-03-27T14:16:32.301Z,48.53
2018-03-27T14:19:00.883Z,48.28
2018-03-27T14:21:28.525Z,48.62
2018-03-27T14:23:56.112Z,48.91
2018-03-27T14:26:23.708Z,47.80
2018-03-27T14:28:51.292Z,48.94
2018-03-27T14:31:18.885Z,47.82
2018-03-27T14:33:46.968Z,45.79
2018-03-27T14:36:14.601Z,45.83
2018-03-27T14:38:42.187Z,46.25
2018-03-27T14:41:09.771Z,46.17
2018-03-27T14:43:37.433Z,46.84
2018-03-27T14:46:05.045Z,45.36
2018-03-27T14:48:32.627Z,44.79
2018-03-27T14:51:00.229Z,43.65
2018-03-27T14:53:27.841Z,43.60
2018-03-27T14:55:55.543Z,43.51
2018-03-27T14:58:23.161Z,43.62
2018-03-27T15:00:50.761Z,44.47
2018-03-27T15:03:18.380Z,49.04
2018-03-27T15:05:45.986Z,46.98
2018-03-27T15:08:13.575Z,46.54
2018-03-27T15:10:41.164Z,46.16
2018-03-27T15:13:08.753Z,47.27
2018-03-27T15:15:36.399Z,47.32
2018-03-27T15:18:04.015Z,46.63
2018-03-27T15:20:31.597Z,44.80
2018-03-27T15:22:59.185Z,44.39
2018-03-27T15:25:26.856Z,44.16
2018-03-27T15:27:55.056Z,43.16
2018-03-27T15:30:22.638Z,43.30
2018-03-27T15:32:50.220Z,44.29
2018-03-27T15:35:17.804Z,48.73
2018-03-27T15:37:45.402Z,47.06
2018-03-27T15:40:12.983Z,49.49
2018-03-27T15:42:40.622Z,51.37
2018-03-27T15:45:08.207Z,49.28
2018-03-27T15:47:35.796Z,46.47
2018-03-27T15:50:03.404Z,46.49
2018-03-27T15:52:31.018Z,47.00
2018-03-27T15:54:58.619Z,49.03
2018-03-27T15:57:26.208Z,48.53
2018-03-27T15:59:53.851Z,48.30
2018-03-27T16:02:21.435Z,49.17
2018-03-27T16:04:49.017Z,51.27
2018-03-27T16:07:16.640Z,51.65
2018-03-27T16:09:44.426Z,51.16
2018-03-27T16:12:11.999Z,52.55
2018-03-27T16:14:39.579Z,53.10
2018-03-27T16:17:07.156Z,54.92
2018-03-27T16:19:34.741Z,55.23
2018-03-27T16:22:02.357Z,54.90
2018-03-27T16:24:29.933Z,55.34
2018-03-27T16:26:57.536Z,55.25
2018-03-27T16:29:25.113Z,57.62
2018-03-27T16:31:52.700Z,58.54
2018-03-27T16:34:20.384Z,58.49
2018-03-27T16:36:47.959Z,57.14
2018-03-27T16:39:15.537Z,58.65
2018-03-27T16:41:43.516Z,58.39
2018-03-27T16:44:11.092Z,60.11
2018-03-27T16:46:38.673Z,59.35
2018-03-27T16:49:06.263Z,59.70
2018-03-27T16:51:33.863Z,59.71
2018-03-27T16:54:01.449Z,60.53
2018-03-27T16:56:29.089Z,60.39
2018-03-27T16:58:56.749Z,60.98
2018-03-27T17:01:24.374Z,61.47
2018-03-27T17:03:51.968Z,62.30
2018-03-27T17:06:19.631Z,62.09
2018-03-27T17:08:47.210Z,63.49
2018-03-27T17:11:14.835Z,64.98
2018-03-27T17:13:42.421Z,65.77
2018-03-27T17:16:10.079Z,64.97
2018-03-27T17:18:37.653Z,67.28
2018-03-27T17:21:05.254Z,67.41
2018-03-27T17:23:32.840Z,67.32
2018-03-27T17:26:00.958Z,69.75
2018-03-27T17:28:28.719Z,69.28
2018-03-27T17:30:56.309Z,70.84
2018-03-27T17:33:23.967Z,70.21
2018-03-27T17:35:51.628Z,69.50
2018-03-27T17:38:19.361Z,70.23
2018-03-27T17:40:46.968Z,69.61
2018-03-27T17:43:14.575Z,69.81
2018-03-27T17:45:42.176Z,70.87
2018-03-27T17:48:09.823Z,71.43
2018-03-27T17:50:38.198Z,73.40
2018-03-27T17:53:07.107Z,72.97
2018-03-27T17:55:35.104Z,74.65
2018-03-27T17:58:02.824Z,74.56
2018-03-27T18:00:30.714Z,74.92
2018-03-27T18:03:02.357Z,73.83
2018-03-27T18:05:30.241Z,74.19
2018-03-27T18:07:59.540Z,74.98
2018-03-27T18:10:27.700Z,75.50
2018-03-27T18:12:55.575Z,74.88
2018-03-27T18:15:23.391Z,76.71
2018-03-27T18:17:51.822Z,75.73
2018-03-27T18:20:20.221Z,76.21
2018-03-27T18:22:49.130Z,76.40
2018-03-27T18:25:17.817Z,76.27
2018-03-27T18:27:46.764Z,75.79
2018-03-27T18:30:15.808Z,75.93
2018-03-27T18:32:44.711Z,76.31
2018-03-27T18:35:13.348Z,75.87
2018-03-27T18:37:42.179Z,78.49
2018-03-27T18:40:22.061Z,77.11
2018-03-27T18:42:51.048Z,76.31
2018-03-27T18:45:25.227Z,77.16
2018-03-27T18:47:53.852Z,76.79
2018-03-27T18:50:22.803Z,77.21
2018-03-27T18:52:51.465Z,78.19
2018-03-27T18:55:20.656Z,77.75
2018-03-27T18:57:49.143Z,78.75
2018-03-27T19:00:18.056Z,78.40
2018-03-27T19:02:46.885Z,80.10
2018-03-27T19:05:15.708Z,80.43
2018-03-27T19:07:44.376Z,80.42
2018-03-27T19:10:19.008Z,79.78
2018-03-27T19:12:47.613Z,79.61
2018-03-27T19:15:16.276Z,80.41
2018-03-27T19:17:44.979Z,80.63
2018-03-27T19:20:13.822Z,81.81
2018-03-27T19:22:42.000Z,81.98
2018-03-27T19:25:10.756Z,82.34
2018-03-27T19:27:40.432Z,82.90
2018-03-27T19:30:08.699Z,81.68
2018-03-27T19:32:37.021Z,80.91
2018-03-27T19:35:05.827Z,81.74
2018-03-27T19:37:34.508Z,82.44
2018-03-27T19:40:03.176Z,82.05
2018-03-27T19:42:31.516Z,80.73
2018-03-27T19:44:59.847Z,82.09
2018-03-27T19:47:28.172Z,82.71
2018-03-27T19:49:57.036Z,82.49
2018-03-27T19:52:26.025Z,81.98
2018-03-27T19:54:54.155Z,81.63
2018-03-27T19:57:22.353Z,82.97
2018-03-27T19:59:50.852Z,82.34
2018-03-27T20:02:19.956Z,78.35
2018-03-27T20:04:48.299Z,77.78
2018-03-27T20:07:16.844Z,78.40
2018-03-27T20:09:45.692Z,77.46
2018-03-27T20:12:13.848Z,80.11
2018-03-27T20:14:42.162Z,78.74
2018-03-27T20:17:11.066Z,78.33
2018-03-27T20:19:39.625Z,78.60
2018-03-27T20:22:08.288Z,78.15
2018-03-27T20:24:38.335Z,79.22
2018-03-27T20:27:07.324Z,80.10
2018-03-27T20:29:36.487Z,79.46
2018-03-27T20:32:05.179Z,80.95
2018-03-27T20:34:34.264Z,80.07
2018-03-27T20:37:03.911Z,81.35
2018-03-27T20:39:32.527Z,82.17
2018-03-27T20:42:01.929Z,79.95
2018-03-27T20:44:31.889Z,82.01
2018-03-27T20:47:01.314Z,81.95
2018-03-27T20:49:32.547Z,82.33
2018-03-27T20:52:03.172Z,81.86
2018-03-27T20:54:36.132Z,81.64
2018-03-27T20:57:04.536Z,82.00
2018-03-27T21:02:43.696Z,81.70
2018-03-27T21:05:14.152Z,82.45
2018-03-27T21:07:41.832Z,82.66
2018-03-27T21:10:09.511Z,83.18
2018-03-27T21:12:37.180Z,82.61
2018-03-27T21:15:04.793Z,84.54
2018-03-27T21:17:32.424Z,83.79
2018-03-27T21:20:00.111Z,83.76
2018-03-27T21:22:27.691Z,84.01
2018-03-27T21:24:55.287Z,84.01
2018-03-27T21:27:22.927Z,84.51
2018-03-27T21:29:50.548Z,82.33
2018-03-27T21:32:18.131Z,83.44
2018-03-27T21:34:45.771Z,82.85
2018-03-27T21:37:13.366Z,83.24
2018-03-27T21:39:41.084Z,84.48
2018-03-27T21:42:08.673Z,84.07
2018-03-27T21:44:36.322Z,83.62
2018-03-27T21:47:03.985Z,83.48
2018-03-27T21:49:31.568Z,83.64
2018-03-27T21:51:59.211Z,83.92
2018-03-27T21:54:26.811Z,83.71
2018-03-27T21:56:54.400Z,83.13
2018-03-27T21:59:22.010Z,82.63
2018-03-27T22:01:49.644Z,82.80
2018-03-27T22:04:17.227Z,82.44
2018-03-27T22:06:44.839Z,82.07
2018-03-27T22:09:12.441Z,81.54
2018-03-27T22:11:40.031Z,81.73
2018-03-27T22:14:07.608Z,81.65
2018-03-27T22:16:35.202Z,82.31
2018-03-27T22:19:02.834Z,82.52
2018-03-27T22:21:30.427Z,82.38
2018-03-27T22:23:58.014Z,83.21
2018-03-27T22:26:25.656Z,83.22
2018-03-27T22:28:53.273Z,82.83
2018-03-27T22:31:20.870Z,81.73
2018-03-27T22:33:48.500Z,82.00
2018-03-27T22:36:16.090Z,82.27
2018-03-27T22:38:43.721Z,82.58
2018-03-27T22:41:11.313Z,82.43
2018-03-27T22:43:38.901Z,82.86
2018-03-27T22:46:06.512Z,83.76
2018-03-27T22:48:34.150Z,82.32
2018-03-27T22:51:01.829Z,82.39
2018-03-27T22:53:29.388Z,81.70
2018-03-27T22:55:57.023Z,83.38
2018-03-27T22:58:26.359Z,83.97
2018-03-27T23:00:53.955Z,83.62
2018-03-27T23:03:21.548Z,84.31
2018-03-27T23:05:49.144Z,83.39
2018-03-27T23:08:16.778Z,83.95
2018-03-27T23:10:44.380Z,84.49
2018-03-27T23:13:12.844Z,84.76
2018-03-27T23:15:40.444Z,84.13
2018-03-27T23:18:08.028Z,84.50
2018-03-27T23:20:35.656Z,85.25
2018-03-27T23:23:03.247Z,85.01
2018-03-27T23:25:30.836Z,85.02
2018-03-27T23:27:59.061Z,84.76
2018-03-27T23:30:26.650Z,84.52
2018-03-27T23:32:54.267Z,84.25
2018-03-27T23:35:21.856Z,84.04
2018-03-27T23:37:49.448Z,84.12
2018-03-27T23:40:17.096Z,84.09
2018-03-27T23:42:44.731Z,84.27
2018-03-27T23:45:12.321Z,83.83
2018-03-27T23:47:39.942Z,83.02
2018-03-27T23:50:07.540Z,83.12
2018-03-27T23:52:35.172Z,83.41
2018-03-27T23:55:02.806Z,83.51
2018-03-27T23:57:30.401Z,83.48
2018-03-27T23:59:58.036Z,83.09
